createdAt,value
2018-07-31T00:01:41.077Z,21.00
2018-07-31T00:04:09.564Z,21.00
2018-07-31T00:06:38.088Z,20.80
2018-07-31T00:09:08.245Z,20.80
2018-07-31T00:11:36.859Z,20.70
2018-07-31T00:14:05.366Z,20.70
2018-07-31T00:16:33.855Z,20.70
2018-07-31T00:19:02.323Z,20.60
2018-07-31T00:21:30.902Z,20.60
2018-07-31T00:23:59.374Z,20.50
2018-07-31T00:26:27.873Z,20.50
2018-07-31T00:28:56.335Z,20.50
2018-07-31T00:31:24.819Z,20.40
2018-07-31T00:33:53.324Z,20.40
2018-07-31T00:36:21.894Z,20.40
2018-07-31T00:38:50.469Z,20.30
2018-07-31T00:41:18.986Z,20.30
2018-07-31T00:43:47.451Z,20.40
2018-07-31T00:46:15.915Z,20.30
2018-07-31T00:48:44.379Z,20.30
2018-07-31T00:51:12.864Z,20.20
2018-07-31T00:53:41.323Z,20.20
2018-07-31T00:56:09.859Z,20.10
2018-07-31T00:58:38.313Z,20.10
2018-07-31T01:01:06.914Z,20.00
2018-07-31T01:03:35.510Z,19.90
2018-07-31T01:06:03.981Z,19.90
2018-07-31T01:08:32.522Z,19.90
2018-07-31T01:11:01.091Z,19.90
2018-07-31T01:13:29.528Z,19.90
2018-07-31T01:15:58.016Z,19.80
2018-07-31T01:18:26.498Z,19.70
2018-07-31T01:20:55.386Z,19.70
2018-07-31T01:23:23.820Z,19.70
2018-07-31T01:25:52.354Z,19.70
2018-07-31T01:28:20.806Z,19.70
2018-07-31T01:30:49.323Z,19.60
2018-07-31T01:33:17.762Z,19.70
2018-07-31T01:35:46.274Z,19.70
2018-07-31T01:38:14.740Z,19.60
2018-07-31T01:40:43.210Z,19.60
2018-07-31T01:43:11.654Z,19.60
2018-07-31T01:48:08.277Z,19.50
2018-07-31T01:50:37.070Z,19.60
2018-07-31T01:53:05.531Z,19.40
2018-07-31T01:55:33.975Z,19.40
2018-07-31T01:58:02.450Z,19.40
2018-07-31T02:00:30.964Z,19.30
2018-07-31T02:02:59.418Z,19.30
2018-07-31T02:05:27.918Z,19.30
2018-07-31T02:07:56.429Z,19.30
2018-07-31T02:10:24.938Z,19.30
2018-07-31T02:12:53.378Z,19.20
2018-07-31T02:15:21.893Z,19.20
2018-07-31T02:17:50.351Z,19.10
2018-07-31T02:20:18.867Z,19.20
2018-07-31T02:22:47.351Z,19.10
2018-07-31T02:25:15.805Z,19.10
2018-07-31T02:27:44.274Z,19.10
2018-07-31T02:30:18.211Z,19.00
2018-07-31T02:32:46.683Z,19.00
2018-07-31T02:35:15.150Z,19.00
2018-07-31T02:37:43.987Z,18.90
2018-07-31T02:40:12.512Z,18.90
2018-07-31T02:42:41.022Z,18.90
2018-07-31T02:45:12.407Z,18.80
2018-07-31T02:47:41.273Z,18.80
2018-07-31T02:50:10.068Z,18.80
2018-07-31T02:52:38.942Z,18.80
2018-07-31T02:55:08.279Z,18.70
2018-07-31T02:57:36.944Z,18.70
2018-07-31T03:00:07.000Z,18.70
2018-07-31T03:02:35.556Z,18.70
2018-07-31T03:05:04.807Z,18.70
2018-07-31T03:07:33.330Z,18.70
2018-07-31T03:10:01.971Z,18.60
2018-07-31T03:12:30.602Z,18.60
2018-07-31T03:14:59.114Z,18.60
2018-07-31T03:17:27.641Z,18.50
2018-07-31T03:19:56.156Z,18.50
2018-07-31T03:22:24.742Z,18.50
2018-07-31T03:24:53.447Z,18.50
2018-07-31T03:29:50.108Z,18.40
2018-07-31T03:32:18.642Z,18.50
2018-07-31T03:34:47.179Z,18.40
2018-07-31T03:37:15.788Z,18.40
2018-07-31T03:39:44.287Z,18.30
2018-07-31T03:42:12.795Z,18.30
2018-07-31T03:44:41.291Z,18.20
2018-07-31T03:47:09.852Z,18.20
2018-07-31T03:49:38.453Z,18.10
2018-07-31T03:52:07.249Z,18.20
2018-07-31T03:54:35.737Z,18.20
2018-07-31T03:57:04.223Z,18.10
2018-07-31T03:59:32.691Z,18.10
2018-07-31T04:02:01.188Z,18.20
2018-07-31T04:04:29.679Z,18.20
2018-07-31T04:06:58.183Z,18.20
2018-07-31T04:09:26.691Z,18.20
2018-07-31T04:11:55.302Z,18.20
2018-07-31T04:14:23.754Z,18.10
2018-07-31T04:16:52.231Z,18.20
2018-07-31T04:19:20.694Z,18.20
2018-07-31T04:21:49.137Z,18.20
2018-07-31T04:24:17.623Z,18.20
2018-07-31T04:26:46.090Z,18.20
2018-07-31T04:29:14.642Z,18.20
2018-07-31T04:31:43.196Z,18.20
2018-07-31T04:34:11.642Z,18.20
2018-07-31T04:36:40.154Z,18.30
2018-07-31T04:39:11.008Z,18.30
2018-07-31T04:41:39.663Z,18.30
2018-07-31T04:44:08.459Z,18.40
2018-07-31T04:46:37.122Z,18.40
2018-07-31T04:49:05.731Z,18.40
2018-07-31T04:51:34.188Z,18.50
2018-07-31T04:54:02.776Z,18.50
2018-07-31T04:56:31.291Z,18.60
2018-07-31T04:59:00.210Z,18.60
2018-07-31T05:01:28.964Z,18.70
2018-07-31T05:03:57.436Z,18.70
2018-07-31T05:06:25.899Z,18.80
2018-07-31T05:08:54.358Z,18.90
2018-07-31T05:11:22.818Z,19.00
2018-07-31T05:13:52.266Z,19.10
2018-07-31T05:16:20.733Z,19.20
2018-07-31T05:18:49.223Z,19.30
2018-07-31T05:21:17.805Z,19.30
2018-07-31T05:23:46.308Z,19.40
2018-07-31T05:26:14.942Z,19.40
2018-07-31T05:28:43.467Z,19.50
2018-07-31T05:31:12.028Z,19.60
2018-07-31T05:33:40.513Z,19.70
2018-07-31T05:36:08.993Z,19.80
2018-07-31T05:38:37.522Z,19.90
2018-07-31T05:41:06.154Z,20.00
2018-07-31T05:43:35.124Z,20.20
2018-07-31T05:48:32.255Z,20.30
2018-07-31T05:51:00.744Z,20.40
2018-07-31T05:53:29.222Z,20.60
2018-07-31T05:55:57.743Z,20.70
2018-07-31T05:58:26.251Z,20.80
2018-07-31T06:00:54.771Z,20.90
2018-07-31T06:03:23.395Z,21.10
2018-07-31T06:05:51.878Z,21.20
2018-07-31T06:08:20.355Z,21.30
2018-07-31T06:10:48.791Z,21.50
2018-07-31T06:13:17.563Z,21.60
2018-07-31T06:15:46.075Z,21.80
2018-07-31T06:18:14.778Z,22.00
2018-07-31T06:20:43.296Z,22.40
2018-07-31T06:23:11.943Z,22.60
2018-07-31T06:25:40.483Z,22.90
2018-07-31T06:28:08.973Z,23.50
2018-07-31T06:30:37.508Z,24.20
2018-07-31T06:33:06.009Z,24.80
2018-07-31T06:35:34.482Z,25.00
2018-07-31T06:38:03.150Z,24.90
2018-07-31T06:40:31.641Z,24.80
2018-07-31T06:43:00.157Z,24.80
2018-07-31T06:45:28.619Z,24.80
2018-07-31T06:47:57.112Z,25.00
2018-07-31T06:50:25.615Z,25.50
2018-07-31T06:52:54.110Z,26.30
2018-07-31T06:55:22.698Z,27.50
2018-07-31T06:57:51.179Z,28.40
2018-07-31T07:00:19.695Z,29.10
2018-07-31T07:02:48.197Z,29.40
2018-07-31T07:05:16.715Z,29.70
2018-07-31T07:07:45.251Z,29.80
2018-07-31T07:10:13.705Z,30.30
2018-07-31T07:12:42.222Z,30.50
2018-07-31T07:15:10.811Z,30.90
2018-07-31T07:20:07.650Z,31.50
2018-07-31T07:22:36.196Z,32.10
2018-07-31T07:25:04.912Z,32.20
2018-07-31T07:27:33.526Z,32.40
2018-07-31T07:30:02.030Z,32.30
2018-07-31T07:32:30.535Z,32.80
2018-07-31T07:34:59.033Z,33.00
2018-07-31T07:37:27.519Z,33.70
2018-07-31T07:39:56.594Z,33.50
2018-07-31T07:42:25.172Z,34.50
2018-07-31T07:44:53.677Z,35.20
2018-07-31T07:47:22.163Z,35.60
2018-07-31T07:49:50.655Z,35.40
2018-07-31T07:52:19.161Z,35.70
2018-07-31T07:54:47.630Z,36.00
2018-07-31T07:57:16.112Z,36.30
2018-07-31T07:59:45.290Z,35.90
2018-07-31T08:02:13.753Z,36.20
2018-07-31T08:04:42.259Z,36.20
2018-07-31T08:07:10.782Z,36.00
2018-07-31T08:09:39.257Z,36.20
2018-07-31T08:12:07.816Z,37.60
2018-07-31T08:14:36.329Z,37.80
2018-07-31T08:17:04.797Z,37.30
2018-07-31T08:19:33.280Z,37.80
2018-07-31T08:22:01.762Z,38.90
2018-07-31T08:24:30.244Z,38.90
2018-07-31T08:26:58.740Z,39.40
2018-07-31T08:29:27.275Z,39.30
2018-07-31T08:31:55.776Z,39.30
2018-07-31T08:34:24.687Z,38.90
2018-07-31T08:36:53.149Z,39.30
2018-07-31T08:39:21.600Z,40.20
2018-07-31T08:41:50.088Z,40.40
2018-07-31T08:44:19.388Z,40.20
2018-07-31T08:46:47.958Z,40.10
2018-07-31T08:49:17.114Z,39.90
2018-07-31T08:51:45.609Z,40.80
2018-07-31T08:54:14.088Z,40.80
2018-07-31T08:56:42.608Z,41.00
2018-07-31T08:59:11.061Z,40.90
2018-07-31T09:01:39.813Z,40.70
2018-07-31T09:04:09.232Z,41.30
2018-07-31T09:06:37.702Z,41.40
2018-07-31T09:09:08.798Z,41.00
2018-07-31T09:11:37.343Z,41.10
2018-07-31T09:14:06.780Z,41.30
2018-07-31T09:16:35.297Z,42.10
2018-07-31T09:19:03.826Z,41.60
2018-07-31T09:21:32.592Z,42.60
2018-07-31T09:24:01.618Z,42.60
2018-07-31T09:26:30.140Z,43.70
2018-07-31T09:28:58.623Z,42.70
2018-07-31T09:31:27.129Z,42.90
2018-07-31T09:33:55.630Z,42.40
2018-07-31T09:36:24.206Z,42.90
2018-07-31T09:38:52.721Z,43.60
2018-07-31T09:41:21.179Z,43.60
2018-07-31T09:43:49.671Z,43.20
2018-07-31T09:46:18.184Z,43.30
2018-07-31T09:48:46.675Z,44.40
2018-07-31T09:51:15.274Z,43.70
2018-07-31T09:53:43.734Z,43.90
2018-07-31T09:56:12.202Z,44.10
2018-07-31T09:58:40.692Z,44.00
2018-07-31T10:01:14.477Z,43.80
2018-07-31T10:03:42.950Z,44.20
2018-07-31T10:06:11.475Z,45.10
2018-07-31T10:08:40.150Z,45.10
2018-07-31T10:11:08.663Z,46.80
2018-07-31T10:13:37.272Z,47.50
2018-07-31T10:16:06.142Z,47.10
2018-07-31T10:18:34.678Z,47.70
2018-07-31T10:21:03.203Z,46.40
2018-07-31T10:23:31.699Z,46.20
2018-07-31T10:26:00.209Z,47.10
2018-07-31T10:28:28.677Z,46.80
2018-07-31T10:30:57.239Z,46.80
2018-07-31T10:33:25.668Z,46.90
2018-07-31T10:35:54.155Z,46.70
2018-07-31T10:38:23.697Z,47.30
2018-07-31T10:40:52.181Z,47.90
2018-07-31T10:43:20.770Z,48.20
2018-07-31T10:45:49.271Z,47.90
2018-07-31T10:48:17.790Z,48.10
2018-07-31T10:50:46.313Z,48.40
2018-07-31T10:53:14.947Z,47.40
2018-07-31T10:55:43.434Z,46.10
2018-07-31T10:58:11.980Z,46.40
2018-07-31T11:00:40.418Z,47.20
2018-07-31T11:05:37.133Z,47.10
2018-07-31T11:08:05.647Z,46.00
2018-07-31T11:10:34.714Z,45.30
2018-07-31T11:13:03.406Z,43.80
2018-07-31T11:15:32.053Z,42.30
2018-07-31T11:18:00.556Z,41.80
2018-07-31T11:20:29.171Z,41.30
2018-07-31T11:22:57.734Z,41.20
2018-07-31T11:25:26.332Z,39.70
2018-07-31T11:27:54.929Z,39.20
2018-07-31T11:30:23.402Z,39.60
2018-07-31T11:32:51.994Z,39.90
2018-07-31T11:35:20.468Z,39.40
2018-07-31T11:37:48.962Z,39.50
2018-07-31T11:40:17.439Z,39.90
2018-07-31T11:42:45.931Z,39.90
2018-07-31T11:45:14.445Z,39.70
2018-07-31T11:47:42.965Z,39.80
2018-07-31T11:50:11.507Z,39.40
2018-07-31T11:52:40.006Z,38.20
2018-07-31T11:55:08.522Z,37.50
2018-07-31T11:57:37.030Z,36.60
2018-07-31T12:00:07.714Z,36.10
2018-07-31T12:02:36.250Z,36.00
2018-07-31T12:05:05.051Z,36.00
2018-07-31T12:07:33.554Z,35.80
2018-07-31T12:10:02.091Z,36.00
2018-07-31T12:14:58.785Z,36.30
2018-07-31T12:17:27.273Z,36.50
2018-07-31T12:19:55.802Z,36.60
2018-07-31T12:22:24.328Z,36.60
2018-07-31T12:24:52.901Z,36.60
2018-07-31T12:27:22.888Z,36.30
2018-07-31T12:29:52.058Z,36.40
2018-07-31T12:32:20.646Z,36.40
2018-07-31T12:34:49.157Z,36.40
2018-07-31T12:37:17.653Z,36.80
2018-07-31T12:39:46.201Z,36.70
2018-07-31T12:42:14.707Z,36.50
2018-07-31T12:44:43.294Z,36.40
2018-07-31T12:47:11.988Z,36.20
2018-07-31T12:49:40.568Z,35.90
2018-07-31T12:52:09.777Z,35.80
2018-07-31T12:54:38.361Z,36.00
2018-07-31T12:57:06.955Z,36.20
2018-07-31T12:59:35.574Z,36.50
2018-07-31T13:02:04.243Z,36.70
2018-07-31T13:04:32.747Z,36.90
2018-07-31T13:07:01.261Z,36.90
2018-07-31T13:09:29.763Z,36.90
2018-07-31T13:11:58.243Z,36.90
2018-07-31T13:14:26.715Z,36.90
2018-07-31T13:16:55.258Z,36.70
2018-07-31T13:19:23.895Z,36.40
2018-07-31T13:21:52.596Z,36.40
2018-07-31T13:24:21.706Z,36.50
2018-07-31T13:26:50.286Z,36.50
2018-07-31T13:29:18.782Z,36.10
2018-07-31T13:34:15.456Z,36.20
2018-07-31T13:36:44.000Z,36.20
2018-07-31T13:39:12.544Z,36.30
2018-07-31T13:41:41.036Z,36.50
2018-07-31T13:44:09.819Z,36.50
2018-07-31T13:46:38.098Z,36.30
2018-07-31T13:49:06.663Z,36.20
2018-07-31T13:51:35.263Z,36.00
2018-07-31T13:54:03.865Z,36.10
2018-07-31T13:56:32.371Z,36.30
2018-07-31T13:59:00.960Z,36.20
2018-07-31T14:01:29.484Z,36.00
2018-07-31T14:03:57.999Z,36.10
2018-07-31T14:06:26.486Z,36.00
2018-07-31T14:08:54.969Z,36.00
2018-07-31T14:11:23.463Z,36.00
2018-07-31T14:13:52.035Z,36.10
2018-07-31T14:16:20.509Z,36.00
2018-07-31T14:18:49.010Z,36.00
2018-07-31T14:21:18.579Z,36.20
2018-07-31T14:23:47.164Z,36.10
2018-07-31T14:26:15.711Z,36.00
2018-07-31T14:28:44.454Z,35.90
2018-07-31T14:31:13.252Z,35.90
2018-07-31T14:33:41.773Z,35.70
2018-07-31T14:36:10.374Z,35.60
2018-07-31T14:38:39.059Z,35.50
2018-07-31T14:41:07.527Z,35.60
2018-07-31T14:43:36.258Z,35.60
2018-07-31T14:46:04.875Z,35.70
2018-07-31T14:48:33.494Z,35.50
2018-07-31T14:51:01.963Z,35.40
2018-07-31T14:53:30.516Z,35.40
2018-07-31T14:55:59.081Z,35.60
2018-07-31T14:58:27.762Z,35.70
2018-07-31T15:00:56.461Z,35.70
2018-07-31T15:03:25.025Z,35.60
2018-07-31T15:05:55.005Z,35.30
2018-07-31T15:08:23.727Z,35.00
2018-07-31T15:10:52.545Z,35.10
2018-07-31T15:13:21.139Z,35.10
2018-07-31T15:15:49.690Z,35.20
2018-07-31T15:20:46.550Z,35.10
2018-07-31T15:23:15.964Z,35.10
2018-07-31T15:25:44.518Z,35.20
2018-07-31T15:28:13.271Z,35.00
2018-07-31T15:30:41.769Z,35.00
2018-07-31T15:33:10.496Z,34.90
2018-07-31T15:35:39.084Z,34.80
2018-07-31T15:38:07.741Z,34.70
2018-07-31T15:40:36.432Z,34.80
2018-07-31T15:43:05.188Z,35.00
2018-07-31T15:45:33.767Z,34.80
2018-07-31T15:48:02.382Z,34.60
2018-07-31T15:50:31.007Z,34.70
2018-07-31T15:52:59.652Z,34.70
2018-07-31T15:55:28.400Z,34.80
2018-07-31T15:57:57.051Z,34.70
2018-07-31T16:00:25.843Z,34.70
2018-07-31T16:02:54.352Z,34.70
2018-07-31T16:05:22.853Z,34.40
2018-07-31T16:07:51.443Z,34.50
2018-07-31T16:10:20.226Z,34.50
2018-07-31T16:12:48.898Z,34.50
2018-07-31T16:15:17.566Z,34.50
2018-07-31T16:17:46.348Z,34.50
2018-07-31T16:20:15.473Z,34.40
2018-07-31T16:22:44.891Z,34.30
2018-07-31T16:25:13.426Z,34.20
2018-07-31T16:27:41.971Z,34.00
2018-07-31T16:30:10.628Z,34.00
2018-07-31T16:32:39.417Z,33.80
2018-07-31T16:35:08.017Z,33.70
2018-07-31T16:37:36.680Z,33.60
2018-07-31T16:40:05.795Z,33.60
2018-07-31T16:42:34.315Z,33.50
2018-07-31T16:45:02.900Z,33.50
2018-07-31T16:47:31.415Z,33.40
2018-07-31T16:49:59.958Z,33.30
2018-07-31T16:52:28.547Z,33.30
2018-07-31T16:54:57.111Z,33.10
2018-07-31T16:57:25.569Z,32.90
2018-07-31T16:59:54.046Z,32.70
2018-07-31T17:02:22.544Z,32.50
2018-07-31T17:04:51.056Z,32.30
2018-07-31T17:07:19.679Z,32.20
2018-07-31T17:09:48.221Z,32.00
2018-07-31T17:12:16.720Z,32.00
2018-07-31T17:14:45.286Z,31.90
2018-07-31T17:17:13.987Z,31.80
2018-07-31T17:19:42.497Z,31.80
2018-07-31T17:22:11.003Z,31.70
2018-07-31T17:24:39.620Z,31.60
2018-07-31T17:27:08.169Z,31.50
2018-07-31T17:29:36.677Z,31.50
2018-07-31T17:32:05.238Z,31.50
2018-07-31T17:34:33.807Z,31.40
2018-07-31T17:37:02.387Z,31.20
2018-07-31T17:39:30.959Z,31.20
2018-07-31T17:41:59.593Z,31.30
2018-07-31T17:44:28.159Z,31.10
2018-07-31T17:46:56.600Z,31.10
2018-07-31T17:49:25.126Z,31.10
2018-07-31T17:51:53.705Z,31.00
2018-07-31T17:56:50.585Z,30.90
2018-07-31T17:59:19.202Z,30.90
2018-07-31T18:01:47.958Z,30.90
2018-07-31T18:04:16.850Z,30.90
2018-07-31T18:06:45.395Z,30.80
2018-07-31T18:09:14.492Z,30.80
2018-07-31T18:11:43.110Z,30.80
2018-07-31T18:14:11.728Z,30.80
2018-07-31T18:16:40.141Z,30.80
2018-07-31T18:19:08.970Z,30.80
2018-07-31T18:21:38.165Z,30.70
2018-07-31T18:24:07.371Z,30.70
2018-07-31T18:26:36.480Z,30.70
2018-07-31T18:29:05.446Z,30.60
2018-07-31T18:31:33.947Z,30.60
2018-07-31T18:34:02.465Z,30.50
2018-07-31T18:36:31.105Z,30.50
2018-07-31T18:38:59.594Z,30.30
2018-07-31T18:41:28.109Z,30.30
2018-07-31T18:43:56.717Z,30.30
2018-07-31T18:46:25.329Z,30.20
2018-07-31T18:51:22.165Z,30.00
2018-07-31T18:53:50.905Z,30.00
2018-07-31T18:56:19.465Z,29.90
2018-07-31T18:58:48.002Z,29.80
2018-07-31T19:01:17.007Z,29.80
2018-07-31T19:03:45.608Z,29.80
2018-07-31T19:06:14.306Z,29.20
2018-07-31T19:08:43.976Z,28.70
2018-07-31T19:11:12.830Z,28.40
2018-07-31T19:13:41.532Z,28.30
2018-07-31T19:16:13.387Z,28.30
2018-07-31T19:18:42.164Z,28.30
2018-07-31T19:23:39.215Z,28.10
2018-07-31T19:26:07.777Z,27.90
2018-07-31T19:28:36.651Z,27.30
2018-07-31T19:31:05.278Z,27.00
2018-07-31T19:33:33.976Z,26.80
2018-07-31T19:36:02.887Z,26.80
2018-07-31T19:38:31.598Z,26.90
2018-07-31T19:41:00.298Z,26.80
2018-07-31T19:43:28.894Z,26.90
2018-07-31T19:45:57.960Z,26.80
2018-07-31T19:48:26.578Z,26.80
2018-07-31T19:50:55.768Z,26.80
2018-07-31T19:53:24.487Z,26.70
2018-07-31T19:55:53.411Z,26.60
2018-07-31T19:58:22.204Z,26.60
2018-07-31T20:00:50.958Z,26.60
2018-07-31T20:03:19.829Z,26.40
2018-07-31T20:05:48.346Z,26.40
2018-07-31T20:08:17.469Z,26.50
2018-07-31T20:10:46.348Z,26.40
2018-07-31T20:13:14.899Z,26.20
2018-07-31T20:15:43.744Z,26.20
2018-07-31T20:18:13.416Z,26.30
2018-07-31T20:20:41.982Z,26.10
2018-07-31T20:23:10.660Z,26.20
2018-07-31T20:25:39.446Z,26.20
2018-07-31T20:28:08.007Z,26.10
2018-07-31T20:30:36.578Z,26.10
2018-07-31T20:33:05.368Z,26.30
2018-07-31T20:35:33.880Z,26.10
2018-07-31T20:38:02.404Z,26.20
2018-07-31T20:40:30.979Z,26.10
2018-07-31T20:42:59.749Z,26.00
2018-07-31T20:45:28.284Z,25.90
2018-07-31T20:47:56.947Z,25.90
2018-07-31T20:50:25.569Z,25.80
2018-07-31T20:52:54.089Z,25.80
2018-07-31T20:55:22.570Z,25.80
2018-07-31T20:57:51.073Z,25.70
2018-07-31T21:00:19.668Z,25.80
2018-07-31T21:02:48.262Z,25.80
2018-07-31T21:05:16.930Z,25.70
2018-07-31T21:07:45.459Z,25.70
2018-07-31T21:10:14.100Z,25.80
2018-07-31T21:12:42.674Z,25.80
2018-07-31T21:15:11.215Z,25.80
2018-07-31T21:17:39.737Z,25.70
2018-07-31T21:20:08.425Z,25.60
2018-07-31T21:22:36.939Z,25.60
2018-07-31T21:25:05.789Z,25.50
2018-07-31T21:30:02.750Z,25.30
2018-07-31T21:32:31.602Z,25.30
2018-07-31T21:35:00.165Z,25.30
2018-07-31T21:37:28.736Z,25.20
2018-07-31T21:39:57.219Z,25.10
2018-07-31T21:42:25.798Z,25.20
2018-07-31T21:44:54.276Z,25.10
2018-07-31T21:47:22.776Z,25.10
2018-07-31T21:52:19.419Z,25.20
2018-07-31T21:54:47.897Z,25.10
2018-07-31T21:57:16.390Z,25.20
2018-07-31T21:59:44.951Z,25.30
2018-07-31T22:02:13.547Z,25.10
2018-07-31T22:07:10.328Z,24.60
2018-07-31T22:09:44.040Z,24.40
2018-07-31T22:12:13.104Z,24.20
2018-07-31T22:14:42.130Z,24.00
2018-07-31T22:17:10.731Z,24.00
2018-07-31T22:19:39.309Z,23.90
2018-07-31T22:22:07.811Z,23.80
2018-07-31T22:24:36.329Z,23.70
2018-07-31T22:27:04.779Z,23.70
2018-07-31T22:29:33.280Z,23.70
2018-07-31T22:32:01.786Z,23.60
2018-07-31T22:34:30.225Z,23.50
2018-07-31T22:36:58.683Z,23.40
2018-07-31T22:39:27.166Z,23.40
2018-07-31T22:41:55.708Z,23.30
2018-07-31T22:44:24.201Z,23.30
2018-07-31T22:46:52.750Z,23.30
2018-07-31T22:49:21.257Z,23.30
2018-07-31T22:51:49.756Z,23.30
2018-07-31T22:54:18.243Z,23.30
2018-07-31T22:56:46.707Z,23.20
2018-07-31T22:59:15.185Z,23.10
2018-07-31T23:01:43.636Z,23.10
2018-07-31T23:04:12.093Z,23.10
2018-07-31T23:06:40.576Z,23.10
2018-07-31T23:09:10.490Z,23.00
2018-07-31T23:11:38.934Z,23.00
2018-07-31T23:14:07.476Z,23.00
2018-07-31T23:16:36.726Z,23.00
2018-07-31T23:19:05.312Z,23.00
2018-07-31T23:21:33.867Z,23.00
2018-07-31T23:24:02.355Z,22.90
2018-07-31T23:26:30.804Z,22.90
2018-07-31T23:28:59.290Z,22.90
2018-07-31T23:31:27.868Z,22.90
2018-07-31T23:33:56.349Z,22.80
2018-07-31T23:36:24.826Z,22.70
2018-07-31T23:38:53.318Z,22.70
2018-07-31T23:41:21.798Z,22.70
2018-07-31T23:43:50.843Z,22.60
2018-07-31T23:46:19.313Z,22.60
2018-07-31T23:48:47.807Z,22.70
2018-07-31T23:51:16.328Z,22.70
2018-07-31T23:53:44.784Z,22.70
2018-07-31T23:56:13.291Z,22.50
2018-07-31T23:58:41.752Z,22.40
